Time;durP1;ratioP1;P1;durP2;ratioP2;P2;SDS_P1;SDS_P2;PMS_P1;PMS_P2;Temp;Humidity;BMP_temperature;BMP_pressure;BME280_temperature;BME280_humidity;BME280_pressure;Samples;Min_cycle;Max_cycle;Signal;HPM_P1;HPM_P2
2023/03/10 00:02:27;;;;;;;13.57;7.30;;;1.10;99.90;;;;;;7389990;19;19922;-74
2023/03/10 00:04:59;;;;;;;12.52;7.20;;;;;;;;;;7392765;19;19926;-74
2023/03/10 00:07:31;;;;;;;13.98;7.57;;;0.80;99.90;;;;;;7393338;19;20280;-74
2023/03/10 00:10:02;;;;;;;13.45;7.47;;;0.80;99.90;;;;;;7395719;19;19922;-73
2023/03/10 00:12:31;;;;;;;13.80;7.45;;;0.80;99.90;;;;;;7389190;19;19929;-73
2023/03/10 00:15:00;;;;;;;14.35;7.43;;;;;;;;;;7394646;19;19928;-73
2023/03/10 00:17:29;;;;;;;15.30;8.35;;;2.10;99.90;;;;;;7395255;19;19926;-73
2023/03/10 00:19:58;;;;;;;15.85;8.95;;;1.30;99.90;;;;;;7395666;19;19925;-73
2023/03/10 00:22:27;;;;;;;13.90;7.68;;;2.00;99.90;;;;;;7396686;19;19922;-73
2023/03/10 00:24:57;;;;;;;16.30;8.60;;;;;;;;;;7398033;19;19927;-73
2023/03/10 00:27:28;;;;;;;15.35;8.23;;;1.90;99.90;;;;;;7393438;19;19928;-73
2023/03/10 00:29:57;;;;;;;15.57;8.15;;;2.20;99.90;;;;;;7395214;19;19982;-73
2023/03/10 00:32:26;;;;;;;16.73;8.77;;;0.70;99.90;;;;;;7393956;19;20344;-73
2023/03/10 00:34:56;;;;;;;17.77;9.20;;;;;;;;;;7385508;19;19923;-74
2023/03/10 00:37:25;;;;;;;15.57;8.43;;;;;;;;;;7386063;19;20352;-74
2023/03/10 00:39:55;;;;;;;13.30;7.35;;;1.00;99.90;;;;;;7390598;19;20020;-74
2023/03/10 00:42:23;;;;;;;15.40;8.02;;;2.10;99.90;;;;;;7389270;19;19930;-74
2023/03/10 00:44:55;;;;;;;12.82;6.85;;;1.00;99.90;;;;;;7391534;19;19921;-75
2023/03/10 00:47:24;;;;;;;11.65;6.90;;;0.80;99.90;;;;;;7392860;19;19926;-74
2023/03/10 00:49:53;;;;;;;15.35;8.20;;;1.60;99.90;;;;;;7399636;19;20275;-74
2023/03/10 00:52:23;;;;;;;14.13;8.68;;;;;;;;;;7395198;19;19943;-75
2023/03/10 00:54:52;;;;;;;14.02;7.43;;;1.20;99.90;;;;;;7396874;19;19942;-74
2023/03/10 00:57:21;;;;;;;14.52;7.75;;;;;;;;;;7397682;19;19926;-74
2023/03/10 01:00:00;;;;;;;14.98;7.35;;;0.70;99.90;;;;;;7398927;19;20341;-75
2023/03/10 01:02:30;;;;;;;14.05;7.72;;;2.20;99.90;;;;;;7395379;19;19935;-74
2023/03/10 01:05:00;;;;;;;12.20;7.15;;;;;;;;;;7397861;19;19925;-74
2023/03/10 01:07:36;;;;;;;13.90;7.95;;;;;;;;;;7394823;19;19919;-74
2023/03/10 01:10:13;;;;;;;11.95;7.30;;;0.90;99.90;;;;;;7396864;19;19940;-74
2023/03/10 01:12:42;;;;;;;14.30;7.82;;;;;;;;;;7396676;19;19922;-74
2023/03/10 01:15:16;;;;;;;;;;;1.50;99.90;;;;;;7398239;19;19938;-75
2023/03/10 01:17:45;;;;;;;9.95;6.22;;;0.90;99.90;;;;;;7398945;19;19922;-76
2023/03/10 01:20:17;;;;;;;12.88;7.75;;;1.30;99.90;;;;;;7394808;19;19994;-74
2023/03/10 01:22:46;;;;;;;13.68;7.13;;;2.20;99.90;;;;;;7396448;19;20397;-74
2023/03/10 01:25:16;;;;;;;13.48;7.38;;;0.60;99.90;;;;;;7393791;19;20315;-74
2023/03/10 01:27:45;;;;;;;12.63;6.80;;;1.70;99.90;;;;;;7396143;19;19982;-75
2023/03/10 01:30:17;;;;;;;12.30;7.22;;;1.00;99.90;;;;;;7396972;19;19918;-75
2023/03/10 01:32:46;;;;;;;12.15;7.00;;;1.30;99.90;;;;;;7397649;19;19933;-75
2023/03/10 01:35:21;;;;;;;12.02;7.30;;;2.20;99.90;;;;;;7396884;19;19919;-74
2023/03/10 01:37:50;;;;;;;13.07;7.05;;;;;;;;;;7375799;19;20379;-74
2023/03/10 01:40:29;;;;;;;10.70;6.43;;;1.10;99.90;;;;;;7398560;19;20367;-74
2023/03/10 01:43:16;;;;;;;10.65;5.93;;;0.90;99.90;;;;;;7331621;19;19994;-73
2023/03/10 01:46:30;;;;;;;10.35;5.50;;;2.10;99.90;;;;;;7147563;19;20605;-74
2023/03/10 01:49:07;;;;;;;8.88;5.40;;;2.40;99.90;;;;;;7182182;19;19919;-74
2023/03/10 01:51:39;;;;;;;10.18;5.70;;;2.30;99.90;;;;;;7393695;19;19922;-74
2023/03/10 01:54:13;;;;;;;7.47;4.70;;;1.60;99.90;;;;;;7395357;19;20583;-73
2023/03/10 01:56:43;;;;;;;8.10;4.70;;;0.90;99.90;;;;;;7395051;19;19933;-73
2023/03/10 01:59:13;;;;;;;8.75;4.55;;;1.30;99.90;;;;;;7392337;19;19927;-72
2023/03/10 02:01:43;;;;;;;8.20;4.60;;;0.80;99.90;;;;;;7391938;19;20418;-73
2023/03/10 02:04:22;;;;;;;9.77;5.03;;;1.40;99.90;;;;;;7394320;19;19939;-72
2023/03/10 02:06:52;;;;;;;10.13;4.97;;;1.10;99.90;;;;;;7394182;19;19914;-72
2023/03/10 02:09:22;;;;;;;8.05;4.95;;;1.10;99.90;;;;;;7394775;19;19922;-72
2023/03/10 02:11:55;;;;;;;9.25;5.05;;;1.00;99.90;;;;;;7395410;19;19918;-72
2023/03/10 02:14:24;;;;;;;9.80;5.72;;;1.70;99.90;;;;;;7394892;19;19948;-72
2023/03/10 02:16:53;;;;;;;9.35;5.53;;;1.40;99.90;;;;;;7395553;19;19923;-72
2023/03/10 02:19:37;;;;;;;9.50;5.05;;;0.90;99.90;;;;;;7393152;19;19915;-72
2023/03/10 02:22:07;;;;;;;;;;;1.70;99.90;;;;;;7397253;19;19940;-73
2023/03/10 02:24:46;;;;;;;9.38;4.65;;;1.60;99.90;;;;;;7392643;19;19944;-72
2023/03/10 02:27:26;;;;;;;9.55;5.00;;;1.80;99.90;;;;;;7395507;19;19929;-72
2023/03/10 02:30:03;;;;;;;7.72;4.63;;;1.50;99.90;;;;;;7393586;19;19915;-72
2023/03/10 02:32:36;;;;;;;10.40;5.80;;;1.10;99.90;;;;;;7394281;19;20577;-73
2023/03/10 02:35:05;;;;;;;;;;;1.60;99.90;;;;;;7397576;19;20312;-73
2023/03/10 02:37:35;;;;;;;10.65;5.60;;;0.80;99.90;;;;;;7393533;19;20427;-72
2023/03/10 02:40:06;;;;;;;10.35;5.35;;;1.80;99.90;;;;;;7391382;19;19924;-72
2023/03/10 02:42:39;;;;;;;10.25;5.13;;;1.60;99.90;;;;;;7392049;19;19929;-72
2023/03/10 02:45:09;;;;;;;10.02;5.55;;;1.70;99.90;;;;;;7395284;19;19923;-72
2023/03/10 02:47:38;;;;;;;8.20;4.82;;;2.20;99.90;;;;;;7397482;19;20436;-72
2023/03/10 02:50:10;;;;;;;9.55;5.32;;;1.40;99.90;;;;;;7393664;19;19931;-72
2023/03/10 02:52:45;;;;;;;10.65;5.95;;;0.80;99.90;;;;;;7393222;19;19954;-72
2023/03/10 02:55:17;;;;;;;8.93;5.68;;;2.10;99.90;;;;;;7393194;19;19923;-72
2023/03/10 02:57:48;;;;;;;8.80;4.88;;;0.80;99.90;;;;;;7393514;19;19927;-72
2023/03/10 03:00:18;;;;;;;9.90;5.50;;;1.30;99.90;;;;;;7391176;19;20230;-72
2023/03/10 03:03:09;;;;;;;8.70;5.03;;;1.70;99.90;;;;;;7389129;19;19926;-72
2023/03/10 03:05:39;;;;;;;10.45;5.47;;;0.70;99.90;;;;;;7392388;19;19924;-72
2023/03/10 03:08:09;;;;;;;10.23;4.80;;;1.60;99.90;;;;;;7392015;19;19918;-72
2023/03/10 03:10:39;;;;;;;11.05;5.78;;;1.60;99.90;;;;;;7393480;19;20302;-72
2023/03/10 03:13:11;;;;;;;9.70;5.10;;;1.50;99.90;;;;;;7392006;19;19922;-72
2023/03/10 03:15:40;;;;;;;10.63;6.07;;;1.90;99.90;;;;;;7393879;19;19933;-72
2023/03/10 03:18:09;;;;;;;10.57;5.85;;;1.40;99.90;;;;;;7396327;19;19931;-72
2023/03/10 03:20:40;;;;;;;10.93;6.05;;;2.30;99.90;;;;;;7392957;19;19982;-72
2023/03/10 03:23:12;;;;;;;10.80;5.93;;;0.80;99.90;;;;;;7394043;19;20309;-71
2023/03/10 03:25:42;;;;;;;8.45;5.22;;;1.10;99.90;;;;;;7394833;19;19946;-72
2023/03/10 03:28:14;;;;;;;11.27;6.03;;;1.80;99.90;;;;;;7393571;19;19990;-72
2023/03/10 03:30:45;;;;;;;9.75;5.15;;;1.10;99.90;;;;;;7391915;19;19918;-72
2023/03/10 03:33:15;;;;;;;10.73;6.22;;;;;;;;;;7392816;19;19960;-72
2023/03/10 03:35:45;;;;;;;11.55;6.40;;;0.80;99.90;;;;;;7392059;19;19927;-73
2023/03/10 03:38:15;;;;;;;11.63;6.03;;;;;;;;;;7394383;19;19948;-72
2023/03/10 03:40:44;;;;;;;10.60;5.57;;;2.10;99.90;;;;;;7395560;19;19942;-73
2023/03/10 03:43:19;;;;;;;11.15;6.18;;;1.40;99.90;;;;;;7392277;19;19926;-73
2023/03/10 03:45:48;;;;;;;12.93;7.47;;;0.90;99.90;;;;;;7391506;19;19937;-73
2023/03/10 03:48:17;;;;;;;11.90;6.68;;;1.40;99.90;;;;;;7392349;19;19927;-73
2023/03/10 03:50:47;;;;;;;11.68;6.68;;;1.80;99.90;;;;;;7391026;19;19929;-72
2023/03/10 03:53:16;;;;;;;14.23;7.05;;;1.70;99.90;;;;;;7388871;19;19938;-72
2023/03/10 03:55:45;;;;;;;13.60;7.40;;;1.50;99.90;;;;;;7390789;19;19929;-73
2023/03/10 03:58:14;;;;;;;12.15;6.88;;;1.00;99.90;;;;;;7390811;19;19919;-72
2023/03/10 04:00:46;;;;;;;16.23;8.10;;;0.90;99.90;;;;;;7391051;19;19923;-73
2023/03/10 04:03:15;;;;;;;14.57;7.97;;;2.10;99.90;;;;;;7390162;19;19918;-72
2023/03/10 04:05:46;;;;;;;16.33;8.45;;;2.00;99.90;;;;;;7390485;19;19958;-73
2023/03/10 04:08:15;;;;;;;14.05;7.80;;;2.00;99.90;;;;;;7393007;19;19939;-72
2023/03/10 04:10:58;;;;;;;18.95;7.60;;;;;;;;;;7391379;19;20369;-72
2023/03/10 04:13:27;;;;;;;16.80;8.38;;;1.70;99.90;;;;;;7389803;19;19930;-72
2023/03/10 04:16:01;;;;;;;17.77;8.45;;;1.60;99.90;;;;;;7390530;19;19919;-72
2023/03/10 04:18:30;;;;;;;14.20;8.18;;;0.80;99.90;;;;;;7387868;19;19927;-72
2023/03/10 04:20:59;;;;;;;16.13;9.45;;;;;;;;;;7393823;19;19918;-72
2023/03/10 04:23:28;;;;;;;14.80;8.27;;;2.00;99.90;;;;;;7395819;19;19931;-72
2023/03/10 04:25:58;;;;;;;15.70;8.20;;;0.70;99.90;;;;;;7396781;19;20594;-72
2023/03/10 04:28:27;;;;;;;15.00;8.00;;;1.90;99.90;;;;;;7397082;19;20101;-72
2023/03/10 04:30:56;;;;;;;16.95;8.27;;;;;;;;;;7396633;19;19923;-72
2023/03/10 04:33:28;;;;;;;15.90;8.45;;;1.50;99.90;;;;;;7397661;19;20249;-72
2023/03/10 04:35:57;;;;;;;16.80;8.63;;;1.70;99.90;;;;;;7396912;19;19918;-72
2023/03/10 04:38:26;;;;;;;16.08;8.77;;;1.40;99.90;;;;;;7396622;19;19993;-72
2023/03/10 04:40:57;;;;;;;18.45;8.73;;;1.50;99.90;;;;;;7393779;19;19922;-72
2023/03/10 04:43:26;;;;;;;20.10;9.18;;;1.00;99.90;;;;;;7400411;19;19946;-72
2023/03/10 04:45:55;;;;;;;18.33;9.80;;;0.80;99.90;;;;;;7399833;19;19941;-72
2023/03/10 04:48:24;;;;;;;20.63;10.30;;;1.40;99.90;;;;;;7402012;19;19930;-72
2023/03/10 04:51:01;;;;;;;19.40;9.95;;;1.50;99.90;;;;;;7397435;19;19922;-72
2023/03/10 04:53:31;;;;;;;19.73;9.82;;;1.10;99.90;;;;;;7400124;19;19926;-72
2023/03/10 04:56:07;;;;;;;21.42;10.73;;;0.80;99.90;;;;;;7397987;19;19922;-72
2023/03/10 04:58:37;;;;;;;23.88;11.15;;;1.40;99.90;;;;;;7400222;19;19919;-72
2023/03/10 05:01:11;;;;;;;23.52;11.18;;;1.00;99.90;;;;;;7397339;19;19964;-72
2023/03/10 05:03:41;;;;;;;23.50;11.23;;;1.00;99.90;;;;;;7397711;19;19939;-73
2023/03/10 05:06:18;;;;;;;28.25;12.90;;;1.40;99.90;;;;;;7396562;19;19930;-72
2023/03/10 05:08:47;;;;;;;24.90;12.63;;;;;;;;;;7396235;19;20628;-72
2023/03/10 05:11:16;;;;;;;25.52;12.00;;;2.20;99.90;;;;;;7396341;19;19954;-72
2023/03/10 05:13:45;;;;;;;25.70;12.07;;;1.20;99.90;;;;;;7394647;19;19929;-73
2023/03/10 05:16:15;;;;;;;25.52;12.90;;;1.90;99.90;;;;;;7395544;19;19928;-73
2023/03/10 05:18:44;;;;;;;29.05;13.57;;;;;;;;;;7397943;19;20373;-72
2023/03/10 05:21:17;;;;;;;31.15;14.45;;;2.30;99.90;;;;;;7395308;19;19919;-72
2023/03/10 05:23:52;;;;;;;25.60;12.35;;;1.80;99.90;;;;;;7393717;19;20332;-73
2023/03/10 05:26:26;;;;;;;27.15;12.73;;;2.20;99.90;;;;;;7395755;19;19922;-73
2023/03/10 05:28:55;;;;;;;27.40;12.88;;;2.00;99.90;;;;;;7396097;19;19922;-72
2023/03/10 05:31:27;;;;;;;26.83;12.40;;;;;;;;;;7395335;19;20303;-73
2023/03/10 05:33:56;;;;;;;24.98;11.57;;;1.60;99.90;;;;;;7394457;19;19953;-73
2023/03/10 05:36:28;;;;;;;24.40;11.95;;;1.20;99.90;;;;;;7394569;19;19933;-72
2023/03/10 05:38:57;;;;;;;24.95;12.05;;;1.80;99.90;;;;;;7394998;19;19919;-72
2023/03/10 05:41:26;;;;;;;25.38;11.52;;;1.80;99.90;;;;;;7394690;19;19922;-72
2023/03/10 05:43:55;;;;;;;20.27;10.65;;;1.10;99.90;;;;;;7394963;19;19922;-72
2023/03/10 05:46:24;;;;;;;20.05;10.88;;;;;;;;;;7394560;19;19950;-72
2023/03/10 05:48:53;;;;;;;21.45;10.77;;;1.60;99.90;;;;;;7396861;19;20010;-72
2023/03/10 05:51:22;;;;;;;22.00;10.90;;;0.80;99.90;;;;;;7394962;19;19942;-72
2023/03/10 05:54:00;;;;;;;20.10;9.57;;;1.50;99.90;;;;;;7397031;19;19939;-72
2023/03/10 05:56:29;;;;;;;17.00;8.70;;;2.20;99.90;;;;;;7396920;19;19922;-72
2023/03/10 05:58:58;;;;;;;21.23;9.90;;;2.10;99.90;;;;;;7396241;19;20404;-72
2023/03/10 06:01:32;;;;;;;16.55;8.25;;;0.70;99.90;;;;;;7397534;19;20402;-72
2023/03/10 06:04:08;;;;;;;17.60;9.40;;;1.40;99.90;;;;;;7394993;19;20311;-71
2023/03/10 06:06:37;;;;;;;18.58;8.68;;;;;;;;;;7395463;19;19927;-71
2023/03/10 06:09:09;;;;;;;17.45;9.18;;;1.50;99.90;;;;;;7393328;19;19919;-72
2023/03/10 06:11:39;;;;;;;18.73;8.82;;;0.90;99.90;;;;;;7395268;19;19933;-72
2023/03/10 06:14:08;;;;;;;19.50;8.50;;;;;;;;;;7393781;19;19925;-72
2023/03/10 06:16:37;;;;;;;15.88;8.70;;;1.30;99.90;;;;;;7398115;19;20405;-72
2023/03/10 06:19:06;;;;;;;14.88;7.68;;;1.30;99.90;;;;;;7393889;19;19919;-71
2023/03/10 06:21:36;;;;;;;15.00;7.60;;;0.70;99.90;;;;;;7393869;19;19919;-71
2023/03/10 06:24:25;;;;;;;18.30;9.20;;;1.60;99.90;;;;;;7390839;19;19922;-72
2023/03/10 06:26:54;;;;;;;15.85;7.80;;;0.70;99.90;;;;;;7393208;19;19982;-72
2023/03/10 06:29:23;;;;;;;15.70;7.82;;;1.40;99.90;;;;;;7395209;19;19923;-72
2023/03/10 06:31:52;;;;;;;14.88;7.93;;;0.60;99.90;;;;;;7393058;19;20333;-72
2023/03/10 06:34:21;;;;;;;12.73;6.70;;;1.00;99.90;;;;;;7393436;19;19922;-72
2023/03/10 06:36:57;;;;;;;11.10;6.05;;;1.40;99.90;;;;;;7393465;19;19918;-72
2023/03/10 06:39:30;;;;;;;17.42;7.80;;;1.80;99.90;;;;;;7395735;19;20376;-72
2023/03/10 06:41:59;;;;;;;17.08;8.43;;;0.70;99.90;;;;;;7393086;19;19939;-72
2023/03/10 06:44:28;;;;;;;16.73;7.75;;;;;;;;;;7392561;19;19970;-72
2023/03/10 06:46:57;;;;;;;16.02;7.68;;;0.70;99.90;;;;;;7391837;19;19923;-72
2023/03/10 06:49:31;;;;;;;15.82;7.47;;;1.40;99.90;;;;;;7394687;19;19915;-72
2023/03/10 06:52:00;;;;;;;18.05;7.10;;;1.10;99.90;;;;;;7392925;19;19926;-72
2023/03/10 06:54:32;;;;;;;13.68;7.53;;;0.60;99.90;;;;;;7393368;19;19942;-72
2023/03/10 06:57:01;;;;;;;14.43;7.22;;;0.90;99.90;;;;;;7392875;19;19919;-72
2023/03/10 06:59:32;;;;;;;15.45;8.10;;;0.90;99.90;;;;;;7392794;19;20011;-72
2023/03/10 07:02:01;;;;;;;15.75;6.65;;;2.00;99.90;;;;;;7394307;19;19923;-73
2023/03/10 07:04:31;;;;;;;15.20;7.13;;;0.60;99.90;;;;;;7393475;19;19925;-72
2023/03/10 07:07:00;;;;;;;14.10;6.78;;;0.60;99.90;;;;;;7392043;19;20422;-72
2023/03/10 07:09:32;;;;;;;15.32;8.00;;;2.10;99.90;;;;;;7393536;19;19933;-71
2023/03/10 07:12:01;;;;;;;16.73;8.07;;;1.80;99.90;;;;;;7393914;19;20284;-72
2023/03/10 07:14:30;;;;;;;15.00;8.05;;;1.40;99.90;;;;;;7396002;19;19946;-72
2023/03/10 07:16:59;;;;;;;15.68;7.72;;;1.30;99.90;;;;;;7392727;19;19930;-72
2023/03/10 07:19:28;;;;;;;15.15;7.95;;;0.90;99.90;;;;;;7395190;19;19946;-72
2023/03/10 07:21:56;;;;;;;14.38;7.40;;;0.60;99.90;;;;;;7391685;19;20527;-72
2023/03/10 07:24:25;;;;;;;14.48;7.00;;;0.70;99.90;;;;;;7391403;19;19926;-72
2023/03/10 07:27:00;;;;;;;15.30;8.32;;;1.30;99.90;;;;;;7392287;19;19923;-72
2023/03/10 07:29:29;;;;;;;14.65;7.43;;;1.00;99.90;;;;;;7392301;19;19946;-71
2023/03/10 07:31:58;;;;;;;12.90;7.28;;;1.30;99.90;;;;;;7392756;19;19950;-71
2023/03/10 07:34:27;;;;;;;15.30;7.18;;;1.60;99.90;;;;;;7394558;19;19974;-71
2023/03/10 07:36:57;;;;;;;13.80;7.63;;;;;;;;;;7393035;19;19922;-71
2023/03/10 07:39:26;;;;;;;16.98;8.02;;;1.60;99.90;;;;;;7393780;19;19930;-72
2023/03/10 07:41:58;;;;;;;15.13;8.43;;;1.10;99.90;;;;;;7389055;19;19922;-72
2023/03/10 07:44:27;;;;;;;14.77;7.55;;;0.90;99.90;;;;;;7390853;19;19961;-71
2023/03/10 07:46:57;;;;;;;14.40;7.90;;;1.70;99.90;;;;;;7395426;19;19946;-71
2023/03/10 07:49:26;;;;;;;14.98;7.72;;;1.50;99.90;;;;;;7394986;19;19991;-72
2023/03/10 07:51:55;;;;;;;14.52;7.68;;;1.00;99.90;;;;;;7390835;19;19929;-72
2023/03/10 07:54:24;;;;;;;13.45;7.05;;;;;;;;;;7392171;19;20590;-73
2023/03/10 07:56:53;;;;;;;14.05;7.95;;;;;;;;;;7392906;19;20349;-73
2023/03/10 07:59:25;;;;;;;14.07;7.22;;;1.40;99.90;;;;;;7397838;19;20341;-74
2023/03/10 08:01:54;;;;;;;15.57;7.47;;;;;;;;;;7394191;19;19918;-74
2023/03/10 08:04:23;;;;;;;14.73;7.03;;;1.50;99.90;;;;;;7397508;19;19946;-73
2023/03/10 08:06:53;;;;;;;12.80;6.45;;;2.10;99.90;;;;;;7397106;19;19919;-74
2023/03/10 08:09:22;;;;;;;15.95;8.27;;;1.70;99.90;;;;;;7398056;19;19915;-73
2023/03/10 08:11:51;;;;;;;15.55;7.68;;;1.70;99.90;;;;;;7399121;19;19929;-73
2023/03/10 08:14:22;;;;;;;15.35;8.02;;;1.00;99.90;;;;;;7396748;19;20349;-73
2023/03/10 08:16:57;;;;;;;14.02;7.45;;;2.00;99.90;;;;;;7397799;19;19914;-73
2023/03/10 08:19:28;;;;;;;14.48;6.88;;;1.40;99.90;;;;;;7397638;19;19918;-73
2023/03/10 08:21:57;;;;;;;14.45;8.07;;;1.90;99.90;;;;;;7394618;19;20351;-73
2023/03/10 08:24:27;;;;;;;15.43;7.88;;;2.30;99.90;;;;;;7394826;19;19915;-73
2023/03/10 08:26:56;;;;;;;18.00;7.65;;;;;;;;;;7397019;19;20230;-74
2023/03/10 08:29:26;;;;;;;15.57;8.20;;;1.60;99.90;;;;;;7397262;19;19919;-73
2023/03/10 08:31:57;;;;;;;16.40;7.80;;;2.10;99.90;;;;;;7400071;19;19922;-73
2023/03/10 08:34:26;;;;;;;16.92;8.75;;;2.40;99.90;;;;;;7397446;19;19923;-73
2023/03/10 08:36:57;;;;;;;17.92;9.38;;;;;;;;;;7380084;19;20352;-73
2023/03/10 08:39:26;;;;;;;19.27;9.95;;;1.20;99.90;;;;;;7399492;19;20315;-73
2023/03/10 08:41:55;;;;;;;19.50;9.45;;;1.80;99.90;;;;;;7396991;19;19934;-74
2023/03/10 08:44:24;;;;;;;17.27;9.05;;;2.50;99.90;;;;;;7397466;19;20337;-73
2023/03/10 08:46:54;;;;;;;18.25;8.63;;;2.40;99.90;;;;;;7398987;19;19929;-73
2023/03/10 08:49:26;;;;;;;18.63;9.85;;;2.50;99.90;;;;;;7400066;19;20407;-73
2023/03/10 08:51:55;;;;;;;21.27;9.88;;;1.70;99.90;;;;;;7396969;19;19947;-73
2023/03/10 08:54:25;;;;;;;18.75;10.02;;;1.10;99.90;;;;;;7399659;19;19923;-74
2023/03/10 08:56:54;;;;;;;20.20;9.65;;;1.40;99.90;;;;;;7397865;19;19922;-74
2023/03/10 08:59:23;;;;;;;23.38;11.10;;;1.20;99.90;;;;;;7398556;19;19943;-74
2023/03/10 09:01:52;;;;;;;19.30;10.60;;;2.20;99.90;;;;;;7390139;19;20324;-74
2023/03/10 09:04:22;;;;;;;23.60;10.38;;;1.60;99.90;;;;;;7403027;19;19950;-74
2023/03/10 09:06:53;;;;;;;21.88;10.65;;;1.80;99.90;;;;;;7402057;19;19922;-74
2023/03/10 09:09:23;;;;;;;20.92;10.75;;;1.70;99.90;;;;;;7402406;19;19951;-73
2023/03/10 09:11:52;;;;;;;19.35;10.85;;;1.50;99.90;;;;;;7402395;19;19918;-74
2023/03/10 09:14:21;;;;;;;19.52;9.75;;;;;;;;;;7403456;19;19926;-74
2023/03/10 09:16:51;;;;;;;20.70;10.25;;;3.10;99.90;;;;;;7403295;19;19943;-74
2023/03/10 09:19:19;;;;;;;17.95;9.65;;;2.90;99.90;;;;;;7403042;19;19941;-74
2023/03/10 09:21:49;;;;;;;19.05;10.02;;;;;;;;;;7400130;19;19933;-73
2023/03/10 09:24:21;;;;;;;16.33;8.88;;;2.20;99.90;;;;;;7400000;19;19929;-73
2023/03/10 09:26:49;;;;;;;20.60;10.45;;;2.00;99.90;;;;;;7400501;19;20368;-72
2023/03/10 09:29:18;;;;;;;20.98;9.65;;;2.00;99.90;;;;;;7401943;19;20344;-73
2023/03/10 09:31:48;;;;;;;20.08;10.10;;;1.50;99.90;;;;;;7397883;19;19922;-73
2023/03/10 09:34:17;;;;;;;15.63;8.43;;;2.30;99.90;;;;;;7402406;19;19923;-74
2023/03/10 09:36:46;;;;;;;16.35;8.70;;;1.50;99.90;;;;;;7402422;19;19922;-74
2023/03/10 09:39:15;;;;;;;21.02;9.75;;;1.80;99.90;;;;;;7400681;19;19926;-74
2023/03/10 09:42:14;;;;;;;16.60;9.32;;;2.10;99.90;;;;;;7397842;19;19933;-75
2023/03/10 09:44:53;;;;;;;18.75;9.07;;;2.80;99.90;;;;;;7398159;19;19933;-73
2023/03/10 09:47:28;;;;;;;16.77;9.70;;;1.20;99.90;;;;;;7399145;19;19922;-73
2023/03/10 09:50:16;;;;;;;16.60;8.48;;;2.40;99.90;;;;;;7401490;19;20343;-73
2023/03/10 09:52:48;;;;;;;18.65;9.40;;;2.20;99.90;;;;;;7400891;19;19926;-73
2023/03/10 09:55:23;;;;;;;21.92;9.85;;;1.80;99.90;;;;;;7399755;19;19956;-72
2023/03/10 09:57:57;;;;;;;15.15;8.68;;;2.40;99.90;;;;;;7401533;19;19922;-73
2023/03/10 10:00:30;;;;;;;16.88;9.00;;;2.00;99.90;;;;;;7399699;19;20237;-73
2023/03/10 10:03:06;;;;;;;17.50;9.23;;;1.20;99.90;;;;;;7392225;19;19943;-73
2023/03/10 10:05:39;;;;;;;17.27;9.00;;;2.00;99.90;;;;;;7399865;19;19925;-73
2023/03/10 10:08:19;;;;;;;19.65;9.95;;;2.20;99.90;;;;;;7398956;19;19923;-74
2023/03/10 10:10:54;;;;;;;17.40;9.10;;;1.50;99.90;;;;;;7399505;19;19914;-73
2023/03/10 10:16:57;;;;;;;21.27;9.48;;;2.40;99.90;;;;;;7391123;19;20018;-73
2023/03/10 10:19:29;;;;;;;18.13;9.30;;;2.10;99.90;;;;;;7394161;19;19992;-73
2023/03/10 10:22:09;;;;;;;19.55;9.10;;;1.40;99.90;;;;;;7397987;19;19919;-75
2023/03/10 10:24:39;;;;;;;19.60;9.60;;;2.30;99.90;;;;;;7400905;19;19922;-75
2023/03/10 10:27:08;;;;;;;17.52;8.73;;;1.70;99.90;;;;;;7398557;19;19918;-73
2023/03/10 10:29:41;;;;;;;21.50;9.55;;;1.90;99.90;;;;;;7403608;19;19918;-73
2023/03/10 10:32:14;;;;;;;18.63;9.20;;;1.80;99.90;;;;;;7381873;19;20352;-74
2023/03/10 10:34:45;;;;;;;17.30;9.57;;;1.90;99.90;;;;;;7402475;19;20380;-73
2023/03/10 10:37:30;;;;;;;17.02;9.07;;;2.40;99.90;;;;;;7400494;19;19945;-74
2023/03/10 10:40:01;;;;;;;15.18;8.18;;;1.90;99.90;;;;;;7396538;19;19918;-73
2023/03/10 10:42:32;;;;;;;16.50;8.63;;;2.10;99.90;;;;;;7399151;19;19926;-73
2023/03/10 10:45:02;;;;;;;17.60;9.18;;;2.40;99.90;;;;;;7400174;19;20313;-74
2023/03/10 10:47:35;;;;;;;16.50;8.23;;;1.70;99.90;;;;;;7394705;19;19978;-74
2023/03/10 10:50:21;;;;;;;16.45;8.88;;;2.20;99.90;;;;;;7401454;19;19929;-73
2023/03/10 10:52:52;;;;;;;19.10;9.07;;;1.40;99.90;;;;;;7392516;19;20313;-73
2023/03/10 10:55:28;;;;;;;19.77;9.85;;;2.40;99.90;;;;;;7400976;19;19927;-72
2023/03/10 10:57:59;;;;;;;20.05;10.18;;;2.50;99.90;;;;;;7400660;19;19945;-74
2023/03/10 11:00:31;;;;;;;17.75;9.60;;;1.70;99.90;;;;;;7398454;19;19922;-73
2023/03/10 11:03:03;;;;;;;15.27;8.50;;;2.70;99.90;;;;;;7398283;19;19978;-74
2023/03/10 11:05:37;;;;;;;18.98;9.13;;;1.60;99.90;;;;;;7401815;19;19922;-73
2023/03/10 11:08:21;;;;;;;18.15;9.15;;;1.50;99.90;;;;;;7402134;19;19923;-72
2023/03/10 11:10:58;;;;;;;18.88;9.32;;;1.70;99.90;;;;;;7398678;19;19911;-74
2023/03/10 11:13:32;;;;;;;17.30;9.32;;;2.10;99.90;;;;;;7399930;19;19922;-73
2023/03/10 11:16:07;;;;;;;19.08;9.80;;;2.20;99.90;;;;;;7399772;19;19922;-72
2023/03/10 11:18:43;;;;;;;17.20;8.98;;;2.60;99.90;;;;;;7401258;19;20409;-72
2023/03/10 11:21:15;;;;;;;16.60;8.88;;;1.30;99.90;;;;;;7400121;19;20380;-72
2023/03/10 11:23:51;;;;;;;17.20;9.32;;;2.30;99.90;;;;;;7397536;19;19927;-72
2023/03/10 11:26:31;;;;;;;20.70;9.90;;;1.60;99.90;;;;;;7400703;19;19922;-72
2023/03/10 11:29:10;;;;;;;14.60;8.07;;;2.50;99.90;;;;;;7399440;19;20059;-73
2023/03/10 11:31:47;;;;;;;13.85;7.90;;;1.80;99.90;;;;;;7399466;19;19927;-73
2023/03/10 11:34:29;;;;;;;16.05;8.90;;;2.80;99.90;;;;;;7399758;19;20265;-72
2023/03/10 11:37:07;;;;;;;17.30;9.02;;;2.00;99.90;;;;;;7400662;19;19922;-73
2023/03/10 11:39:47;;;;;;;18.05;8.95;;;1.50;99.90;;;;;;7397124;19;19937;-71
2023/03/10 11:42:27;;;;;;;17.67;9.15;;;2.70;99.90;;;;;;7398555;19;19958;-72
2023/03/10 11:45:05;;;;;;;17.83;9.43;;;1.30;99.90;;;;;;7399199;19;19930;-71
2023/03/10 11:47:49;;;;;;;17.88;9.20;;;2.60;99.90;;;;;;7397143;19;19950;-72
2023/03/10 11:50:30;;;;;;;18.70;9.23;;;3.10;99.90;;;;;;7399314;19;19919;-71
2023/03/10 11:53:03;;;;;;;17.65;9.88;;;2.50;99.90;;;;;;7397605;19;20581;-73
2023/03/10 11:55:33;;;;;;;18.83;9.10;;;1.80;99.90;;;;;;7398698;19;19918;-72
2023/03/10 11:58:05;;;;;;;19.42;8.80;;;2.00;99.90;;;;;;7398478;19;19914;-71
2023/03/10 12:00:37;;;;;;;19.55;10.68;;;1.80;99.90;;;;;;7400245;19;20256;-72
2023/03/10 12:03:14;;;;;;;16.90;9.48;;;2.60;99.90;;;;;;7397117;19;19919;-72
2023/03/10 12:05:53;;;;;;;18.23;9.45;;;2.00;99.90;;;;;;7398277;19;19926;-72
2023/03/10 12:08:26;;;;;;;16.92;8.45;;;3.00;99.90;;;;;;7395860;19;20346;-71
2023/03/10 12:10:57;;;;;;;14.73;7.75;;;1.50;99.90;;;;;;7399519;19;20242;-73
2023/03/10 12:13:29;;;;;;;18.02;9.05;;;1.50;99.90;;;;;;7398633;19;19929;-72
2023/03/10 12:16:01;;;;;;;16.63;8.80;;;1.40;99.90;;;;;;7397190;19;19923;-72
2023/03/10 12:18:30;;;;;;;16.92;8.90;;;1.50;99.90;;;;;;7396951;19;20613;-73
2023/03/10 12:21:20;;;;;;;17.70;9.57;;;2.30;99.90;;;;;;7397096;19;19944;-73
2023/03/10 12:23:50;;;;;;;17.05;9.40;;;1.90;99.90;;;;;;7396968;19;19915;-73
2023/03/10 12:27:04;;;;;;;19.10;8.50;;;2.00;99.90;;;;;;7397843;19;19922;-71
2023/03/10 12:29:38;;;;;;;16.00;8.52;;;1.90;99.90;;;;;;7393495;19;19932;-73
2023/03/10 12:32:27;;;;;;;14.38;8.32;;;2.20;99.90;;;;;;7397221;19;19983;-73
2023/03/10 12:35:26;;;;;;;16.90;8.85;;;3.00;99.90;;;;;;7399300;19;19914;-73
2023/03/10 12:38:30;;;;;;;14.60;8.27;;;1.50;99.90;;;;;;7397690;19;19911;-73
2023/03/10 12:41:00;;;;;;;16.85;8.68;;;1.50;99.90;;;;;;7397102;19;20356;-73
2023/03/10 12:43:55;;;;;;;16.50;8.80;;;2.60;99.90;;;;;;7396103;19;19918;-73
2023/03/10 12:46:30;;;;;;;16.42;7.78;;;1.80;99.90;;;;;;7404122;19;20398;-73
2023/03/10 12:49:14;;;;;;;13.90;7.63;;;1.60;99.90;;;;;;7403894;19;20267;-72
2023/03/10 12:51:48;;;;;;;14.02;7.95;;;1.70;99.90;;;;;;7403953;19;19985;-73
2023/03/10 12:54:44;;;;;;;16.52;8.35;;;2.80;99.90;;;;;;7403850;19;19915;-73
2023/03/10 12:57:20;;;;;;;13.90;6.97;;;2.90;99.90;;;;;;7407663;19;20024;-73
2023/03/10 12:59:59;;;;;;;12.80;7.35;;;1.30;99.90;;;;;;7403485;19;19915;-72
2023/03/10 13:02:35;;;;;;;12.85;7.28;;;2.70;99.90;;;;;;7402488;19;19929;-73
2023/03/10 13:05:07;;;;;;;12.23;7.55;;;1.70;99.90;;;;;;7408702;19;19915;-73
2023/03/10 13:07:36;;;;;;;;;;;2.20;99.90;;;;;;7405857;19;19918;-73
2023/03/10 13:10:17;;;;;;;14.60;7.85;;;2.10;99.90;;;;;;7403806;19;19918;-73
2023/03/10 13:12:51;;;;;;;10.90;6.50;;;1.30;99.90;;;;;;7403281;19;19925;-73
2023/03/10 13:15:24;;;;;;;14.38;7.43;;;2.70;99.90;;;;;;7402765;19;19919;-73
2023/03/10 13:17:54;;;;;;;13.85;6.55;;;2.10;99.90;;;;;;7403970;19;19929;-73
2023/03/10 13:20:24;;;;;;;13.27;7.20;;;1.70;99.90;;;;;;7404152;19;19938;-73
2023/03/10 13:22:57;;;;;;;13.70;7.18;;;1.10;99.90;;;;;;7401767;19;19970;-73
2023/03/10 13:25:31;;;;;;;15.07;7.53;;;2.10;99.90;;;;;;7406050;19;20253;-73
2023/03/10 13:28:10;;;;;;;14.48;8.85;;;1.30;99.90;;;;;;7402375;19;19914;-73
2023/03/10 13:30:39;;;;;;;14.55;8.13;;;2.10;99.90;;;;;;7402722;19;20553;-73